createdAt,value
2024-01-15T00:01:46.200Z,-4.94
2024-01-15T00:04:14.904Z,-4.93
2024-01-15T00:06:43.496Z,-4.88
2024-01-15T00:09:13.499Z,-4.93
2024-01-15T00:11:42.071Z,-4.81
2024-01-15T00:14:10.754Z,-4.79
2024-01-15T00:16:39.129Z,-4.77
2024-01-15T00:19:07.652Z,-4.79
2024-01-15T00:21:36.156Z,-4.82
2024-01-15T00:24:05.037Z,-4.88
2024-01-15T00:26:34.993Z,-4.82
2024-01-15T00:29:04.288Z,-4.98
2024-01-15T00:31:32.930Z,-4.87
2024-01-15T00:34:01.614Z,-4.95
2024-01-15T00:36:30.248Z,-4.97
2024-01-15T00:38:59.112Z,-4.93
2024-01-15T00:41:28.808Z,-4.75
2024-01-15T00:43:58.821Z,-4.75
2024-01-15T00:46:27.539Z,-4.72
2024-01-15T00:48:56.084Z,-4.66
2024-01-15T00:51:24.602Z,-4.66
2024-01-15T00:53:53.400Z,-4.60
2024-01-15T00:56:21.744Z,-4.59
2024-01-15T00:58:50.120Z,-4.57
2024-01-15T01:01:20.398Z,-4.68
2024-01-15T01:03:49.232Z,-4.71
2024-01-15T01:06:17.943Z,-4.62
2024-01-15T01:08:46.820Z,-4.70
2024-01-15T01:11:16.519Z,-4.71
2024-01-15T01:13:45.484Z,-4.68
2024-01-15T01:16:13.931Z,-4.69
2024-01-15T01:18:43.928Z,-4.66
2024-01-15T01:21:12.542Z,-4.74
2024-01-15T01:23:40.980Z,-4.65
2024-01-15T01:26:09.775Z,-4.68
2024-01-15T01:28:38.171Z,-4.63
2024-01-15T01:31:07.046Z,-4.67
2024-01-15T01:33:35.561Z,-4.53
2024-01-15T01:36:11.329Z,-4.47
2024-01-15T01:38:40.222Z,-4.48
2024-01-15T01:41:08.948Z,-4.54
2024-01-15T01:43:37.329Z,-4.43
2024-01-15T01:46:08.701Z,-4.48
2024-01-15T01:48:39.177Z,-4.65
2024-01-15T01:51:10.169Z,-4.76
2024-01-15T01:53:40.570Z,-4.81
2024-01-15T01:56:09.925Z,-4.88
2024-01-15T01:58:38.725Z,-4.91
2024-01-15T02:01:08.308Z,-5.00
2024-01-15T02:03:37.561Z,-4.98
2024-01-15T02:06:06.682Z,-4.96
2024-01-15T02:08:37.507Z,-4.95
2024-01-15T02:11:06.607Z,-4.90
2024-01-15T02:13:35.083Z,-4.93
2024-01-15T02:16:03.945Z,-4.88
2024-01-15T02:18:42.464Z,-4.85
2024-01-15T02:21:11.994Z,-4.83
2024-01-15T02:23:42.232Z,-4.79
2024-01-15T02:26:11.418Z,-4.71
2024-01-15T02:28:40.088Z,-4.67
2024-01-15T02:31:08.597Z,-4.53
2024-01-15T02:33:37.355Z,-4.37
2024-01-15T02:36:06.861Z,-4.36
2024-01-15T02:38:35.252Z,-4.29
2024-01-15T02:41:05.161Z,-4.31
2024-01-15T02:43:33.739Z,-4.26
2024-01-15T02:46:02.393Z,-4.21
2024-01-15T02:48:30.975Z,-4.26
2024-01-15T02:50:59.381Z,-4.20
2024-01-15T02:53:27.761Z,-4.09
2024-01-15T02:55:56.365Z,-4.12
2024-01-15T02:58:26.166Z,-4.13
2024-01-15T03:00:54.741Z,-4.19
2024-01-15T03:03:23.592Z,-4.16
2024-01-15T03:05:52.137Z,-4.25
2024-01-15T03:08:20.685Z,-4.33
2024-01-15T03:10:49.175Z,-4.40
2024-01-15T03:13:17.674Z,-4.41
2024-01-15T03:15:47.589Z,-4.46
2024-01-15T03:18:16.480Z,-4.45
2024-01-15T03:20:44.840Z,-4.46
2024-01-15T03:23:13.243Z,-4.48
2024-01-15T03:25:41.618Z,-4.51
2024-01-15T03:28:10.166Z,-4.51
2024-01-15T03:30:38.614Z,-4.49
2024-01-15T03:33:08.858Z,-4.46
2024-01-15T03:35:37.275Z,-4.51
2024-01-15T03:38:06.145Z,-4.51
2024-01-15T03:40:34.644Z,-4.43
2024-01-15T03:43:03.192Z,-4.40
2024-01-15T03:45:31.593Z,-4.48
2024-01-15T03:48:00.108Z,-4.36
2024-01-15T03:50:29.909Z,-4.46
2024-01-15T03:52:58.412Z,-4.40
2024-01-15T03:55:26.914Z,-4.37
2024-01-15T03:57:55.397Z,-4.40
2024-01-15T04:00:24.686Z,-4.46
2024-01-15T04:02:53.152Z,-4.41
2024-01-15T04:05:21.737Z,-4.34
2024-01-15T04:07:51.403Z,-4.33
2024-01-15T04:10:19.940Z,-4.27
2024-01-15T04:12:48.586Z,-4.25
2024-01-15T04:15:17.378Z,-4.20
2024-01-15T04:17:46.341Z,-4.13
2024-01-15T04:20:14.880Z,-4.09
2024-01-15T04:22:43.289Z,-4.07
2024-01-15T04:25:13.069Z,-4.03
2024-01-15T04:27:41.585Z,-4.06
2024-01-15T04:30:11.553Z,-4.09
2024-01-15T04:32:40.073Z,-4.07
2024-01-15T04:35:09.272Z,-4.03
2024-01-15T04:37:37.684Z,-4.01
2024-01-15T04:40:07.307Z,-4.05
2024-01-15T04:42:37.208Z,-4.07
2024-01-15T04:45:06.952Z,-4.04
2024-01-15T04:47:35.315Z,-4.04
2024-01-15T04:50:04.049Z,-4.07
2024-01-15T04:52:32.497Z,-4.01
2024-01-15T04:55:00.908Z,-4.02
2024-01-15T04:57:29.505Z,-3.98
2024-01-15T04:59:59.339Z,-3.90
2024-01-15T05:02:27.794Z,-3.92
2024-01-15T05:04:56.457Z,-3.92
2024-01-15T05:07:24.960Z,-3.87
2024-01-15T05:09:53.729Z,-3.83
2024-01-15T05:12:22.201Z,-3.82
2024-01-15T05:14:50.738Z,-3.85
2024-01-15T05:17:20.612Z,-3.73
2024-01-15T05:19:49.243Z,-3.76
2024-01-15T05:22:17.913Z,-3.77
2024-01-15T05:24:46.444Z,-3.74
2024-01-15T05:27:15.002Z,-3.76
2024-01-15T05:29:43.506Z,-3.71
2024-01-15T05:32:12.048Z,-3.74
2024-01-15T05:34:42.108Z,-3.73
2024-01-15T05:37:10.583Z,-3.70
2024-01-15T05:39:39.164Z,-3.68
2024-01-15T05:42:08.581Z,-3.68
2024-01-15T05:44:37.480Z,-3.65
2024-01-15T05:47:06.519Z,-3.66
2024-01-15T05:49:34.958Z,-3.61
2024-01-15T05:52:05.073Z,-3.60
2024-01-15T05:54:33.882Z,-3.56
2024-01-15T05:57:02.297Z,-3.60
2024-01-15T05:59:33.390Z,-3.59
2024-01-15T06:02:01.897Z,-3.59
2024-01-15T06:04:30.266Z,-3.55
2024-01-15T06:06:59.313Z,-3.56
2024-01-15T06:09:29.807Z,-3.52
2024-01-15T06:11:58.192Z,-3.50
2024-01-15T06:14:26.498Z,-3.50
2024-01-15T06:16:55.203Z,-3.47
2024-01-15T06:19:23.869Z,-3.42
2024-01-15T06:21:52.823Z,-3.43
2024-01-15T06:24:21.574Z,-3.44
2024-01-15T06:26:51.398Z,-3.37
2024-01-15T06:29:21.085Z,-3.39
2024-01-15T06:31:50.238Z,-3.31
2024-01-15T06:34:18.958Z,-3.35
2024-01-15T06:36:47.880Z,-3.29
2024-01-15T06:39:16.350Z,-3.33
2024-01-15T06:41:45.599Z,-3.41
2024-01-15T06:44:15.873Z,-3.37
2024-01-15T06:46:46.038Z,-3.39
2024-01-15T06:49:14.885Z,-3.40
2024-01-15T06:51:45.181Z,-3.43
2024-01-15T06:54:14.824Z,-3.53
2024-01-15T06:56:43.206Z,-3.53
2024-01-15T06:59:11.582Z,-3.55
2024-01-15T07:01:41.586Z,-3.54
2024-01-15T07:04:10.413Z,-3.48
2024-01-15T07:06:38.923Z,-3.46
2024-01-15T07:09:09.227Z,-3.45
2024-01-15T07:11:37.595Z,-3.49
2024-01-15T07:14:06.822Z,-3.46
2024-01-15T07:16:38.134Z,-3.45
2024-01-15T07:19:08.818Z,-3.42
2024-01-15T07:21:37.819Z,-3.37
2024-01-15T07:24:06.694Z,-3.34
2024-01-15T07:26:35.427Z,-3.28
2024-01-15T07:29:04.557Z,-3.19
2024-01-15T07:31:33.999Z,-3.14
2024-01-15T07:34:02.773Z,-3.06
2024-01-15T07:36:32.930Z,-3.03
2024-01-15T07:39:01.845Z,-3.04
2024-01-15T07:41:30.251Z,-2.99
2024-01-15T07:43:58.605Z,-2.94
2024-01-15T07:46:27.057Z,-2.86
2024-01-15T07:48:57.805Z,-2.84
2024-01-15T07:51:26.860Z,-2.71
2024-01-15T07:53:57.337Z,-2.70
2024-01-15T07:56:25.891Z,-2.67
2024-01-15T07:58:54.266Z,-2.66
2024-01-15T08:01:22.924Z,-2.63
2024-01-15T08:03:51.526Z,-2.61
2024-01-15T08:06:20.235Z,-2.61
2024-01-15T08:08:48.699Z,-2.55
2024-01-15T08:11:18.468Z,-2.51
2024-01-15T08:13:47.208Z,-2.47
2024-01-15T08:16:15.618Z,-2.44
2024-01-15T08:18:45.464Z,-2.46
2024-01-15T08:21:14.624Z,-2.44
2024-01-15T08:23:43.039Z,-2.38
2024-01-15T08:26:12.444Z,-2.37
2024-01-15T08:28:42.204Z,-2.28
2024-01-15T08:31:11.009Z,-2.27
2024-01-15T08:33:39.633Z,-2.24
2024-01-15T08:36:08.463Z,-2.17
2024-01-15T08:38:36.898Z,-2.17
2024-01-15T08:41:05.822Z,-2.16
2024-01-15T08:43:34.376Z,-2.12
2024-01-15T08:46:05.095Z,-2.11
2024-01-15T08:48:34.176Z,-2.10
2024-01-15T08:51:02.657Z,-2.14
2024-01-15T08:53:31.073Z,-2.08
2024-01-15T08:55:59.585Z,-2.04
2024-01-15T08:58:28.430Z,-2.03
2024-01-15T09:00:57.230Z,-1.97
2024-01-15T09:03:28.227Z,-1.96
2024-01-15T09:05:57.425Z,-1.83
2024-01-15T09:08:25.946Z,-1.87
2024-01-15T09:10:54.696Z,-1.92
2024-01-15T09:13:23.192Z,-1.93
2024-01-15T09:15:51.781Z,-1.96
2024-01-15T09:18:20.959Z,-1.89
2024-01-15T09:20:51.325Z,-1.88
2024-01-15T09:23:19.696Z,-1.81
2024-01-15T09:25:50.049Z,-1.80
2024-01-15T09:28:18.515Z,-1.75
2024-01-15T09:30:47.384Z,-1.72
2024-01-15T09:33:15.912Z,-1.70
2024-01-15T09:35:44.806Z,-1.66
2024-01-15T09:38:14.912Z,-1.58
2024-01-15T09:40:48.007Z,-1.61
2024-01-15T09:43:18.011Z,-1.61
2024-01-15T09:45:47.405Z,-1.61
2024-01-15T09:48:16.285Z,-1.60
2024-01-15T09:50:44.943Z,-1.61
2024-01-15T09:53:17.215Z,-1.57
2024-01-15T09:55:45.924Z,-1.49
2024-01-15T09:58:15.259Z,-1.51
2024-01-15T10:00:46.393Z,-1.50
2024-01-15T10:03:15.825Z,-1.41
2024-01-15T10:05:45.944Z,-1.16
2024-01-15T10:08:16.951Z,-1.15
2024-01-15T10:10:45.751Z,-1.09
2024-01-15T10:13:15.771Z,-1.14
2024-01-15T10:15:48.302Z,-1.13
2024-01-15T10:18:17.150Z,-1.07
2024-01-15T10:20:45.737Z,-0.94
2024-01-15T10:23:16.520Z,-0.76
2024-01-15T10:25:45.007Z,-0.53
2024-01-15T10:28:15.566Z,-0.65
2024-01-15T10:30:43.992Z,-0.74
2024-01-15T10:33:13.704Z,-0.74
2024-01-15T10:35:43.414Z,-0.75
2024-01-15T10:38:11.763Z,-0.69
2024-01-15T10:40:41.571Z,-0.66
2024-01-15T10:43:10.037Z,-0.80
2024-01-15T10:45:38.483Z,-0.83
2024-01-15T10:48:08.238Z,-0.81
2024-01-15T10:50:36.739Z,-0.73
2024-01-15T10:53:07.054Z,-0.64
2024-01-15T10:55:37.892Z,-0.68
2024-01-15T10:58:09.556Z,-0.64
2024-01-15T11:00:40.153Z,-0.59
2024-01-15T11:03:09.488Z,-0.74
2024-01-15T11:05:40.886Z,-0.42
2024-01-15T11:08:09.883Z,-0.51
2024-01-15T11:10:43.674Z,-0.36
2024-01-15T11:13:17.030Z,-0.47
2024-01-15T11:15:59.652Z,-0.69
2024-01-15T11:18:30.691Z,-0.77
2024-01-15T11:21:26.548Z,-0.75
2024-01-15T11:23:59.199Z,-0.66
2024-01-15T11:26:40.405Z,-0.56
2024-01-15T11:29:31.462Z,-0.62
2024-01-15T11:32:02.990Z,-0.48
2024-01-15T11:34:55.141Z,-0.54
2024-01-15T11:37:25.716Z,-0.53
2024-01-15T11:39:58.707Z,-0.67
2024-01-15T11:42:28.721Z,-0.69
2024-01-15T11:44:58.647Z,-0.67
2024-01-15T11:48:11.661Z,-0.70
2024-01-15T11:50:44.237Z,-0.70
2024-01-15T11:53:23.018Z,-0.70
2024-01-15T11:55:54.404Z,-0.82
2024-01-15T11:58:23.240Z,-0.84
2024-01-15T12:00:55.929Z,-0.84
2024-01-15T12:03:25.231Z,-0.84
2024-01-15T12:05:55.776Z,-0.96
2024-01-15T12:08:25.159Z,-0.96
2024-01-15T12:10:54.014Z,-0.93
2024-01-15T12:13:23.246Z,-0.93
2024-01-15T12:15:53.025Z,-0.90
2024-01-15T12:18:21.941Z,-1.02
2024-01-15T12:20:51.217Z,-1.03
2024-01-15T12:23:19.812Z,-1.04
2024-01-15T12:25:48.648Z,-1.06
2024-01-15T12:28:17.965Z,-1.09
2024-01-15T12:30:52.109Z,-0.99
2024-01-15T12:33:23.120Z,-1.05
2024-01-15T12:35:54.833Z,-1.03
2024-01-15T12:38:23.319Z,-1.00
2024-01-15T12:40:51.946Z,-0.96
2024-01-15T12:43:21.101Z,-0.89
2024-01-15T12:45:49.811Z,-0.87
2024-01-15T12:48:19.349Z,-0.83
2024-01-15T12:50:49.700Z,-0.85
2024-01-15T12:53:19.136Z,-0.88
2024-01-15T12:55:47.816Z,-0.92
2024-01-15T12:58:16.955Z,-0.94
2024-01-15T13:00:48.264Z,-0.76
2024-01-15T13:03:17.070Z,-0.79
2024-01-15T13:05:46.430Z,-0.74
2024-01-15T13:08:16.348Z,-0.83
2024-01-15T13:10:45.319Z,-0.85
2024-01-15T13:13:14.506Z,-0.85
2024-01-15T13:15:42.967Z,-1.05
2024-01-15T13:18:11.897Z,-1.08
2024-01-15T13:20:40.381Z,-1.17
2024-01-15T13:23:08.806Z,-1.13
2024-01-15T13:25:39.479Z,-1.30
2024-01-15T13:28:09.144Z,-1.57
2024-01-15T13:30:38.705Z,-1.65
2024-01-15T13:33:07.621Z,-1.63
2024-01-15T13:35:37.212Z,-1.77
2024-01-15T13:38:06.250Z,-1.83
2024-01-15T13:40:36.245Z,-1.91
2024-01-15T13:43:09.598Z,-1.94
2024-01-15T13:45:38.922Z,-2.10
2024-01-15T13:48:09.468Z,-2.13
2024-01-15T13:50:38.428Z,-2.21
2024-01-15T13:53:06.917Z,-2.23
2024-01-15T13:55:35.282Z,-2.29
2024-01-15T13:58:06.824Z,-2.28
2024-01-15T14:00:36.138Z,-2.18
2024-01-15T14:03:04.859Z,-2.08
2024-01-15T14:05:33.405Z,-2.19
2024-01-15T14:08:01.862Z,-2.17
2024-01-15T14:10:30.235Z,-2.29
2024-01-15T14:12:58.714Z,-2.27
2024-01-15T14:15:28.732Z,-2.30
2024-01-15T14:17:57.419Z,-2.24
2024-01-15T14:20:26.049Z,-2.28
2024-01-15T14:22:55.163Z,-2.21
2024-01-15T14:25:23.646Z,-2.28
2024-01-15T14:27:52.431Z,-2.21
2024-01-15T14:30:21.089Z,-2.17
2024-01-15T14:32:51.042Z,-2.22
2024-01-15T14:35:19.874Z,-2.21
2024-01-15T14:37:49.585Z,-2.08
2024-01-15T14:40:18.390Z,-2.07
2024-01-15T14:42:47.070Z,-2.07
2024-01-15T14:45:15.679Z,-2.03
2024-01-15T14:47:45.385Z,-2.10
2024-01-15T14:50:15.266Z,-2.16
2024-01-15T14:52:45.818Z,-2.12
2024-01-15T14:55:14.616Z,-2.11
2024-01-15T14:57:43.478Z,-2.08
2024-01-15T15:00:14.649Z,-2.13
2024-01-15T15:02:43.555Z,-2.14
2024-01-15T15:05:14.623Z,-2.19
2024-01-15T15:07:44.707Z,-2.16
2024-01-15T15:10:13.407Z,-2.08
2024-01-15T15:12:42.185Z,-2.04
2024-01-15T15:15:15.831Z,-2.03
2024-01-15T15:17:46.893Z,-2.09
2024-01-15T15:20:16.273Z,-2.07
2024-01-15T15:22:46.105Z,-2.01
2024-01-15T15:25:14.730Z,-1.96
2024-01-15T15:27:43.295Z,-2.05
2024-01-15T15:30:12.588Z,-2.00
2024-01-15T15:32:40.918Z,-2.05
2024-01-15T15:35:10.768Z,-1.98
2024-01-15T15:37:39.404Z,-1.99
2024-01-15T15:40:12.498Z,-1.95
2024-01-15T15:42:41.372Z,-1.96
2024-01-15T15:45:10.819Z,-2.05
2024-01-15T15:47:39.801Z,-2.14
2024-01-15T15:50:10.140Z,-2.15
2024-01-15T15:52:38.791Z,-2.17
2024-01-15T15:55:10.463Z,-2.15
2024-01-15T15:57:38.954Z,-2.10
2024-01-15T16:00:09.431Z,-2.11
2024-01-15T16:02:43.790Z,-2.12
2024-01-15T16:05:12.546Z,-2.12
2024-01-15T16:07:41.384Z,-2.10
2024-01-15T16:10:11.916Z,-2.02
2024-01-15T16:12:40.711Z,-2.03
2024-01-15T16:15:22.372Z,-1.99
2024-01-15T16:23:17.480Z,-1.94
2024-01-15T16:23:32.030Z,-1.95
2024-01-15T16:24:04.970Z,-1.88
2024-01-15T16:26:18.755Z,-1.89
2024-01-15T16:28:47.758Z,-1.91
2024-01-15T16:31:16.425Z,-1.87
2024-01-15T16:33:49.930Z,-1.90
2024-01-15T16:36:22.696Z,-1.86
2024-01-15T16:38:52.279Z,-1.87
2024-01-15T16:41:22.061Z,-1.87
2024-01-15T16:43:50.417Z,-1.91
2024-01-15T16:46:18.919Z,-1.90
2024-01-15T16:48:47.325Z,-1.92
2024-01-15T16:51:16.170Z,-1.93
2024-01-15T16:53:44.622Z,-1.96
2024-01-15T16:56:13.150Z,-2.01
2024-01-15T16:58:43.828Z,-1.99
2024-01-15T17:01:12.933Z,-1.94
2024-01-15T17:03:41.488Z,-1.94
2024-01-15T17:06:09.840Z,-1.92
2024-01-15T17:08:38.224Z,-1.87
2024-01-15T17:11:06.946Z,-1.89
2024-01-15T17:13:35.672Z,-1.95
2024-01-15T17:16:05.829Z,-2.04
2024-01-15T17:18:34.304Z,-2.06
2024-01-15T17:21:02.784Z,-2.12
2024-01-15T17:23:31.329Z,-2.11
2024-01-15T17:26:00.096Z,-2.14
2024-01-15T17:28:28.831Z,-2.25
2024-01-15T17:30:57.971Z,-2.35
2024-01-15T17:33:28.008Z,-2.44
2024-01-15T17:36:00.393Z,-2.49
2024-01-15T17:38:31.072Z,-2.60
2024-01-15T17:40:59.583Z,-2.63
2024-01-15T17:43:28.408Z,-2.63
2024-01-15T17:46:01.713Z,-2.56
2024-01-15T17:48:32.533Z,-2.50
2024-01-15T17:51:02.503Z,-2.39
2024-01-15T17:53:31.132Z,-2.36
2024-01-15T17:56:00.289Z,-2.33
2024-01-15T17:58:29.480Z,-2.37
2024-01-15T18:01:00.590Z,-2.41
2024-01-15T18:03:31.431Z,-2.33
2024-01-15T18:06:00.183Z,-2.37
2024-01-15T18:08:28.745Z,-2.40
2024-01-15T18:10:57.120Z,-2.40
2024-01-15T18:13:25.637Z,-2.44
2024-01-15T18:15:58.863Z,-2.44
2024-01-15T18:18:27.783Z,-2.38
2024-01-15T18:20:57.921Z,-2.38
2024-01-15T18:23:26.566Z,-2.41
2024-01-15T18:25:55.063Z,-2.52
2024-01-15T18:28:23.464Z,-2.64
2024-01-15T18:30:52.786Z,-2.68
2024-01-15T18:33:24.450Z,-2.74
2024-01-15T18:35:53.243Z,-2.78
2024-01-15T18:38:23.124Z,-2.81
2024-01-15T18:40:52.754Z,-2.89
2024-01-15T18:43:22.186Z,-2.91
2024-01-15T18:45:51.759Z,-2.93
2024-01-15T18:48:20.621Z,-2.86
2024-01-15T18:50:49.389Z,-2.78
2024-01-15T18:53:17.866Z,-2.73
2024-01-15T18:55:47.992Z,-2.65
2024-01-15T18:58:17.932Z,-2.65
2024-01-15T19:00:46.747Z,-2.65
2024-01-15T19:03:15.484Z,-2.70
2024-01-15T19:05:44.653Z,-2.71
2024-01-15T19:08:13.231Z,-2.66
2024-01-15T19:10:43.073Z,-2.62
2024-01-15T19:13:13.372Z,-2.64
2024-01-15T19:15:41.803Z,-2.70
2024-01-15T19:18:10.408Z,-2.76
2024-01-15T19:20:38.948Z,-2.82
2024-01-15T19:23:07.841Z,-2.82
2024-01-15T19:25:36.826Z,-2.83
2024-01-15T19:28:05.989Z,-2.80
2024-01-15T19:30:37.359Z,-2.76
2024-01-15T19:33:06.730Z,-2.77
2024-01-15T19:35:35.760Z,-2.80
2024-01-15T19:38:05.985Z,-2.84
2024-01-15T19:40:35.068Z,-2.80
2024-01-15T19:43:03.533Z,-2.83
2024-01-15T19:45:32.289Z,-2.85
2024-01-15T19:48:02.228Z,-2.85
2024-01-15T19:50:30.703Z,-2.91
2024-01-15T19:52:59.341Z,-2.88
2024-01-15T19:55:27.862Z,-2.89
2024-01-15T19:57:56.617Z,-2.92
2024-01-15T20:00:25.143Z,-2.89
2024-01-15T20:02:53.546Z,-2.89
2024-01-15T20:05:23.670Z,-2.89
2024-01-15T20:07:52.365Z,-2.84
2024-01-15T20:10:20.860Z,-2.80
2024-01-15T20:12:49.367Z,-2.78
2024-01-15T20:15:19.481Z,-2.71
2024-01-15T20:17:48.092Z,-2.63
2024-01-15T20:20:16.666Z,-2.66
2024-01-15T20:22:46.435Z,-2.64
2024-01-15T20:25:15.089Z,-2.66
2024-01-15T20:27:43.579Z,-2.69
2024-01-15T20:30:13.733Z,-2.79
2024-01-15T20:32:42.323Z,-2.78
2024-01-15T20:35:11.111Z,-2.78
2024-01-15T20:37:40.307Z,-2.76
2024-01-15T20:40:12.126Z,-2.68
2024-01-15T20:42:40.728Z,-2.65
2024-01-15T20:45:10.927Z,-2.76
2024-01-15T20:47:41.616Z,-2.77
2024-01-15T20:50:10.763Z,-2.73
2024-01-15T20:52:39.740Z,-2.76
2024-01-15T20:55:11.451Z,-2.77
2024-01-15T20:57:39.786Z,-2.75
2024-01-15T21:00:10.103Z,-2.77
2024-01-15T21:02:39.113Z,-2.70
2024-01-15T21:05:08.989Z,-2.73
2024-01-15T21:07:38.438Z,-2.74
2024-01-15T21:10:10.165Z,-2.70
2024-01-15T21:12:38.541Z,-2.67
2024-01-15T21:15:09.298Z,-2.66
2024-01-15T21:17:38.100Z,-2.66
2024-01-15T21:20:09.954Z,-2.63
2024-01-15T21:22:38.803Z,-2.54
2024-01-15T21:25:11.152Z,-2.62
2024-01-15T21:27:41.725Z,-2.62
2024-01-15T21:30:13.022Z,-2.72
2024-01-15T21:32:41.873Z,-2.66
2024-01-15T21:35:13.218Z,-2.64
2024-01-15T21:37:42.397Z,-2.63
2024-01-15T21:40:12.850Z,-2.69
2024-01-15T21:42:41.683Z,-2.68
2024-01-15T21:45:11.545Z,-2.64
2024-01-15T21:47:40.268Z,-2.72
2024-01-15T21:50:10.552Z,-2.68
2024-01-15T21:52:39.756Z,-2.58
2024-01-15T21:55:10.745Z,-2.66
2024-01-15T21:57:41.018Z,-2.72
2024-01-15T22:00:10.684Z,-2.72
2024-01-15T22:02:41.881Z,-2.74
2024-01-15T22:05:11.486Z,-2.69
2024-01-15T22:07:43.320Z,-2.67
2024-01-15T22:10:13.055Z,-2.62
2024-01-15T22:12:44.900Z,-2.61
2024-01-15T22:15:14.944Z,-2.63
2024-01-15T22:17:43.422Z,-2.65
2024-01-15T22:20:12.537Z,-2.65
2024-01-15T22:22:40.942Z,-2.63
2024-01-15T22:25:10.606Z,-2.57
2024-01-15T22:27:39.206Z,-2.59
2024-01-15T22:30:11.709Z,-2.63
2024-01-15T22:32:40.571Z,-2.62
2024-01-15T22:35:11.659Z,-2.63
2024-01-15T22:37:41.802Z,-2.67
2024-01-15T22:40:11.298Z,-2.71
2024-01-15T22:42:39.711Z,-2.70
2024-01-15T22:45:13.808Z,-2.68
2024-01-15T22:47:44.773Z,-2.70
2024-01-15T22:50:14.336Z,-2.69
2024-01-15T22:52:42.948Z,-2.66
2024-01-15T22:55:11.836Z,-2.65
2024-01-15T22:57:40.377Z,-2.65
2024-01-15T23:00:19.760Z,-2.65
2024-01-15T23:02:49.083Z,-2.66
2024-01-15T23:05:18.104Z,-2.65
2024-01-15T23:07:47.148Z,-2.63
2024-01-15T23:10:15.605Z,-2.64
2024-01-15T23:12:44.215Z,-2.60
2024-01-15T23:15:14.384Z,-2.54
2024-01-15T23:17:44.999Z,-2.53
2024-01-15T23:20:14.433Z,-2.57
2024-01-15T23:22:42.806Z,-2.64
2024-01-15T23:25:11.975Z,-2.63
2024-01-15T23:27:40.377Z,-2.64
2024-01-15T23:30:10.768Z,-2.67
2024-01-15T23:32:40.984Z,-2.63
2024-01-15T23:35:10.111Z,-2.60
2024-01-15T23:37:38.912Z,-2.63
2024-01-15T23:40:09.261Z,-2.63
2024-01-15T23:42:37.917Z,-2.64
2024-01-15T23:45:08.105Z,-2.59
2024-01-15T23:47:36.524Z,-2.56
2024-01-15T23:50:08.658Z,-2.59
2024-01-15T23:52:37.150Z,-2.60
2024-01-15T23:55:06.515Z,-2.60
2024-01-15T23:57:35.009Z,-2.58
